Time;durP1;ratioP1;P1;durP2;ratioP2;P2;SDS_P1;SDS_P2;PMS_P1;PMS_P2;Temp;Humidity;BMP_temperature;BMP_pressure;BME280_temperature;BME280_humidity;BME280_pressure;Samples;Min_cycle;Max_cycle;Signal;HPM_P1;HPM_P2
2023/10/20 00:00:59;;;;;;;;;;;16.60;77.50;;;;;;4149109;28;19940;-54
2023/10/20 00:03:40;;;;;;;;;;;16.60;78.60;;;;;;4149594;28;19933;-55
2023/10/20 00:06:20;;;;;;;;;;;16.70;78.30;;;;;;4169789;28;19932;-55
2023/10/20 00:09:03;;;;;;;;;;;16.70;77.80;;;;;;4156764;28;19938;-56
2023/10/20 00:11:45;;;;;;;;;;;16.70;79.20;;;;;;4163351;28;19936;-55
2023/10/20 00:14:27;;;;;;;;;;;16.80;78.10;;;;;;4178522;28;20272;-56
2023/10/20 00:17:09;;;;;;;;;;;16.70;78.20;;;;;;4182621;28;19958;-59
2023/10/20 00:19:49;;;;;;;;;;;16.70;78.10;;;;;;4158367;28;19937;-55
2023/10/20 00:22:30;;;;;;;;;;;16.60;78.40;;;;;;4167054;28;19932;-55
2023/10/20 00:25:12;;;;;;;;;;;16.60;78.70;;;;;;4175928;28;19936;-55
2023/10/20 00:27:53;;;;;;;;;;;16.50;78.70;;;;;;4172609;28;19932;-54
2023/10/20 00:30:36;;;;;;;;;;;16.50;78.80;;;;;;4140655;28;20400;-56
2023/10/20 00:33:17;;;;;;;;;;;16.50;78.40;;;;;;4154824;28;19936;-56
2023/10/20 00:35:58;;;;;;;;;;;16.60;78.10;;;;;;4143279;28;19975;-56
2023/10/20 00:38:39;;;;;;;;;;;16.60;77.70;;;;;;4159052;28;19936;-56
2023/10/20 00:41:20;;;;;;;;;;;16.60;77.50;;;;;;4159799;28;19932;-55
2023/10/20 00:44:01;;;;;;;;;;;16.60;77.40;;;;;;4153784;28;19932;-55
2023/10/20 00:46:43;;;;;;;;;;;16.50;77.70;;;;;;4167933;28;19967;-55
2023/10/20 00:49:24;;;;;;;;;;;16.50;78.50;;;;;;4171968;28;19932;-56
2023/10/20 00:52:06;;;;;;;;;;;16.50;77.80;;;;;;4170827;28;19935;-55
2023/10/20 00:54:47;;;;;;;;;;;16.50;77.20;;;;;;4171697;28;19948;-55
2023/10/20 00:57:28;;;;;;;;;;;16.50;77.10;;;;;;4170411;28;19935;-56
2023/10/20 01:00:10;;;;;;;;;;;16.50;77.70;;;;;;4154897;28;19936;-55
2023/10/20 01:02:52;;;;;;;;;;;16.50;77.90;;;;;;4176265;28;19932;-55
2023/10/20 01:05:33;;;;;;;;;;;16.40;78.30;;;;;;4171193;28;19932;-56
2023/10/20 01:08:14;;;;;;;;;;;16.30;78.60;;;;;;4157072;28;19939;-55
2023/10/20 01:10:55;;;;;;;;;;;16.30;78.40;;;;;;4147428;28;19959;-55
2023/10/20 01:13:37;;;;;;;;;;;16.30;79.00;;;;;;4155818;28;19936;-57
2023/10/20 01:16:19;;;;;;;;;;;16.20;79.80;;;;;;4155441;28;19933;-56
2023/10/20 01:19:02;;;;;;;;;;;16.10;78.90;;;;;;4163244;28;20454;-55
2023/10/20 01:21:43;;;;;;;;;;;16.10;79.30;;;;;;4171352;28;19951;-57
2023/10/20 01:24:25;;;;;;;;;;;16.00;79.40;;;;;;4169714;28;19932;-56
2023/10/20 01:27:05;;;;;;;;;;;16.00;79.70;;;;;;4154088;28;19936;-55
2023/10/20 01:29:47;;;;;;;;;;;16.10;79.80;;;;;;4155154;28;20396;-56
2023/10/20 01:32:28;;;;;;;;;;;16.20;78.70;;;;;;4154737;28;20052;-56
2023/10/20 01:35:09;;;;;;;;;;;16.20;78.50;;;;;;4142860;28;19960;-57
2023/10/20 01:37:49;;;;;;;;;;;16.30;78.50;;;;;;4152677;28;19932;-57
2023/10/20 01:40:32;;;;;;;;;;;16.20;78.60;;;;;;4140168;28;19936;-55
2023/10/20 01:43:13;;;;;;;;;;;16.20;79.10;;;;;;4139490;28;19979;-56
2023/10/20 01:45:54;;;;;;;;;;;16.10;78.90;;;;;;4154139;28;19936;-56
2023/10/20 01:48:35;;;;;;;;;;;16.10;79.10;;;;;;4151655;28;19940;-55
2023/10/20 01:51:16;;;;;;;;;;;16.10;79.20;;;;;;4139028;28;19948;-56
2023/10/20 01:53:56;;;;;;;;;;;16.10;78.40;;;;;;4127281;28;19936;-56
2023/10/20 01:56:39;;;;;;;;;;;16.10;78.70;;;;;;4122060;28;20056;-56
2023/10/20 01:59:19;;;;;;;;;;;16.10;79.30;;;;;;4141478;28;20341;-55
2023/10/20 02:02:00;;;;;;;;;;;16.10;79.30;;;;;;4127911;28;19933;-55
2023/10/20 02:04:41;;;;;;;;;;;16.00;81.10;;;;;;4136883;28;20293;-55
2023/10/20 02:07:22;;;;;;;;;;;16.00;80.90;;;;;;4137830;28;20416;-55
2023/10/20 02:10:06;;;;;;;;;;;16.00;80.20;;;;;;4147397;28;19932;-54
2023/10/20 02:12:48;;;;;;;;;;;16.10;80.00;;;;;;4137331;28;20015;-56
2023/10/20 02:15:29;;;;;;;;;;;16.10;79.50;;;;;;4151109;28;19936;-55
2023/10/20 02:18:10;;;;;;;;;;;16.10;79.10;;;;;;4154456;28;20400;-54
2023/10/20 02:20:58;;;;;;;;;;;16.10;80.10;;;;;;4137737;28;19937;-55
2023/10/20 02:23:53;;;;;;;;;;;16.10;78.60;;;;;;4114379;28;19936;-47
2023/10/20 02:26:36;;;;;;;;;;;16.10;79.60;;;;;;4110352;28;19933;-50
2023/10/20 02:29:21;;;;;;;;;;;16.10;78.70;;;;;;4132752;28;19932;-49
2023/10/20 02:32:03;;;;;;;;;;;16.20;77.90;;;;;;4148070;28;19940;-49
2023/10/20 02:34:44;;;;;;;;;;;16.30;78.60;;;;;;4134153;28;19934;-52
2023/10/20 02:37:25;;;;;;;;;;;16.30;79.10;;;;;;4137071;28;19932;-50
2023/10/20 02:40:07;;;;;;;;;;;16.40;77.70;;;;;;4134393;28;19936;-47
2023/10/20 02:42:52;;;;;;;;;;;16.40;77.80;;;;;;4134629;28;20027;-47
2023/10/20 02:45:38;;;;;;;;;;;16.50;77.10;;;;;;4148236;28;19932;-52
2023/10/20 02:48:20;;;;;;;;;;;16.60;77.30;;;;;;4148480;28;19944;-49
2023/10/20 02:51:08;;;;;;;;;;;16.60;76.80;;;;;;4149983;28;19947;-50
2023/10/20 02:53:49;;;;;;;;;;;16.60;76.90;;;;;;4149397;28;19980;-49
2023/10/20 02:56:31;;;;;;;;;;;16.60;76.40;;;;;;4141662;28;20007;-48
2023/10/20 02:59:13;;;;;;;;;;;16.50;76.70;;;;;;4144706;28;19975;-50
2023/10/20 03:01:56;;;;;;;;;;;16.50;77.00;;;;;;4151793;28;20071;-50
2023/10/20 03:04:38;;;;;;;;;;;16.50;76.30;;;;;;4123524;28;19959;-48
2023/10/20 03:07:24;;;;;;;;;;;16.40;77.20;;;;;;4128009;28;19937;-55
2023/10/20 03:10:05;;;;;;;;;;;16.40;77.40;;;;;;4135222;28;19967;-55
2023/10/20 03:12:47;;;;;;;;;;;16.30;77.40;;;;;;4150890;28;20683;-57
2023/10/20 03:15:28;;;;;;;;;;;16.30;77.50;;;;;;4139044;28;19932;-56
2023/10/20 03:18:13;;;;;;;;;;;16.20;77.30;;;;;;4157724;28;19933;-49
2023/10/20 03:20:54;;;;;;;;;;;16.20;77.50;;;;;;4131037;28;20321;-57
2023/10/20 03:23:35;;;;;;;;;;;16.20;77.00;;;;;;4148285;28;20069;-55
2023/10/20 03:26:16;;;;;;;;;;;16.20;77.50;;;;;;4166131;28;20056;-54
2023/10/20 03:28:58;;;;;;;;;;;16.20;77.20;;;;;;4166462;28;19950;-56
2023/10/20 03:31:39;;;;;;;;;;;16.20;77.30;;;;;;4152696;28;20392;-57
2023/10/20 03:34:21;;;;;;;;;;;16.30;77.00;;;;;;4127079;28;20625;-57
2023/10/20 03:37:02;;;;;;;;;;;16.30;76.90;;;;;;4145578;28;19980;-57
2023/10/20 03:39:44;;;;;;;;;;;16.30;77.10;;;;;;4138517;28;19993;-56
2023/10/20 03:42:29;;;;;;;;;;;16.40;76.60;;;;;;4164457;28;19932;-49
2023/10/20 03:45:11;;;;;;;;;;;16.50;75.90;;;;;;4167841;28;19932;-50
2023/10/20 03:47:53;;;;;;;;;;;16.50;74.70;;;;;;4167202;28;19971;-48
2023/10/20 03:50:38;;;;;;;;;;;16.50;75.20;;;;;;4164564;28;19932;-50
2023/10/20 03:53:22;;;;;;;;;;;16.50;74.90;;;;;;4165059;28;20051;-49
2023/10/20 03:56:04;;;;;;;;;;;16.50;74.80;;;;;;4146806;28;19932;-49
2023/10/20 03:58:48;;;;;;;;;;;16.50;74.70;;;;;;4166292;28;19931;-49
2023/10/20 04:01:29;;;;;;;;;;;16.40;74.70;;;;;;4161664;28;20293;-47
2023/10/20 04:04:11;;;;;;;;;;;16.30;75.70;;;;;;4176626;28;20078;-50
2023/10/20 04:06:54;;;;;;;;;;;16.30;75.80;;;;;;4170080;28;20472;-50
2023/10/20 04:09:38;;;;;;;;;;;16.30;76.20;;;;;;4171059;28;19969;-48
2023/10/20 04:12:19;;;;;;;;;;;16.40;76.20;;;;;;4171019;28;19935;-51
2023/10/20 04:15:00;;;;;;;;;;;16.40;75.60;;;;;;4172136;28;19979;-49
2023/10/20 04:17:44;;;;;;;;;;;16.50;75.10;;;;;;4170694;28;19974;-50
2023/10/20 04:20:25;;;;;;;;;;;16.50;75.90;;;;;;4171984;28;19932;-48
2023/10/20 04:23:09;;;;;;;;;;;16.60;75.20;;;;;;4152571;28;20305;-49
2023/10/20 04:25:53;;;;;;;;;;;16.60;75.20;;;;;;4169948;28;19935;-48
2023/10/20 04:28:41;;;;;;;;;;;16.60;74.20;;;;;;4153406;28;19933;-51
2023/10/20 04:49:50;;;;;;;;;;;16.50;75.00;;;;;;4157299;28;19932;-48
2023/10/20 04:52:55;;;;;;;;;;;16.40;75.90;;;;;;4161111;28;19936;-49
2023/10/20 04:58:54;;;;;;;;;;;16.30;75.30;;;;;;4138876;28;19932;-48
2023/10/20 05:01:47;;;;;;;;;;;16.20;76.10;;;;;;4165564;28;20415;-48
2023/10/20 05:04:36;;;;;;;;;;;16.10;75.50;;;;;;4167794;28;19936;-48
2023/10/20 05:07:26;;;;;;;;;;;16.10;75.90;;;;;;4165495;28;19932;-48
2023/10/20 05:10:11;;;;;;;;;;;16.10;76.70;;;;;;4149208;28;19932;-47
2023/10/20 05:12:53;;;;;;;;;;;16.10;76.20;;;;;;4167973;28;19982;-48
2023/10/20 05:15:38;;;;;;;;;;;16.00;76.20;;;;;;4150178;28;20389;-49
2023/10/20 05:18:19;;;;;;;;;;;16.00;76.50;;;;;;4148862;28;20270;-48
2023/10/20 05:21:04;;;;;;;;;;;15.90;76.80;;;;;;4155680;28;19931;-47
2023/10/20 05:23:46;;;;;;;;;;;15.90;76.60;;;;;;4166068;28;19935;-48
2023/10/20 05:26:28;;;;;;;;;;;16.00;76.30;;;;;;4168564;28;20384;-48
2023/10/20 05:29:11;;;;;;;;;;;16.20;76.40;;;;;;4168738;28;19932;-49
2023/10/20 05:31:52;;;;;;;;;;;16.30;75.90;;;;;;4166520;28;20014;-49
2023/10/20 05:34:34;;;;;;;;;;;16.30;74.80;;;;;;4159590;28;20320;-48
2023/10/20 05:37:15;;;;;;;;;;;16.40;75.10;;;;;;4158462;28;20038;-49
2023/10/20 05:39:56;;;;;;;;;;;16.40;74.80;;;;;;4160154;28;19939;-47
2023/10/20 05:42:37;;;;;;;;;;;16.40;74.60;;;;;;4163542;28;19932;-49
2023/10/20 05:45:20;;;;;;;;;;;16.40;75.70;;;;;;4158405;28;19932;-52
2023/10/20 05:48:02;;;;;;;;;;;16.50;75.30;;;;;;4166351;28;19935;-49
2023/10/20 05:50:43;;;;;;;;;;;16.50;74.30;;;;;;4168598;28;19936;-48
2023/10/20 05:53:25;;;;;;;;;;;16.40;74.50;;;;;;4160644;28;19931;-48
2023/10/20 05:56:07;;;;;;;;;;;16.40;74.80;;;;;;4167928;28;19932;-50
2023/10/20 05:58:51;;;;;;;;;;;16.30;74.70;;;;;;4151012;28;19932;-49
2023/10/20 06:01:36;;;;;;;;;;;16.20;75.00;;;;;;4166355;28;19932;-49
2023/10/20 06:04:22;;;;;;;;;;;16.10;75.50;;;;;;4165225;28;20054;-49
2023/10/20 06:07:04;;;;;;;;;;;16.10;76.20;;;;;;4167341;28;19932;-49
2023/10/20 06:09:47;;;;;;;;;;;15.90;76.20;;;;;;4137678;28;19935;-54
2023/10/20 06:12:28;;;;;;;;;;;15.80;76.60;;;;;;4151640;28;19975;-50
2023/10/20 06:15:11;;;;;;;;;;;15.70;76.90;;;;;;4140236;28;19998;-49
2023/10/20 06:17:53;;;;;;;;;;;15.60;76.80;;;;;;4160529;28;19936;-49
2023/10/20 06:20:39;;;;;;;;;;;15.60;77.50;;;;;;4162809;28;20059;-54
2023/10/20 06:23:20;;;;;;;;;;;15.60;77.50;;;;;;4159078;28;19991;-55
2023/10/20 06:26:01;;;;;;;;;;;15.50;76.70;;;;;;4162413;28;19936;-51
2023/10/20 06:28:44;;;;;;;;;;;15.50;77.10;;;;;;4164649;28;20024;-55
2023/10/20 06:31:41;;;;;;;;;;;15.50;77.00;;;;;;4156611;28;19933;-53
2023/10/20 06:34:25;;;;;;;;;;;15.70;76.50;;;;;;4147143;28;20002;-49
2023/10/20 06:37:08;;;;;;;;;;;15.70;76.60;;;;;;4150836;28;20064;-53
2023/10/20 06:39:49;;;;;;;;;;;15.80;76.10;;;;;;4144792;28;19946;-53
2023/10/20 06:42:34;;;;;;;;;;;15.80;75.30;;;;;;4137300;28;20079;-53
2023/10/20 06:45:15;;;;;;;;;;;15.80;76.00;;;;;;4142594;28;19932;-52
2023/10/20 06:48:00;;;;;;;;;;;15.70;75.60;;;;;;4166755;28;19971;-59
2023/10/20 06:50:49;;;;;;;;;;;15.80;74.80;;;;;;4157781;28;19955;-47
2023/10/20 06:53:35;;;;;;;;;;;15.80;75.40;;;;;;4157431;28;20019;-48
2023/10/20 06:56:16;;;;;;;;;;;15.90;73.60;;;;;;4165040;28;19944;-48
2023/10/20 06:59:00;;;;;;;;;;;15.90;74.80;;;;;;4169904;28;19935;-49
2023/10/20 07:01:41;;;;;;;;;;;16.00;73.60;;;;;;4161115;28;19947;-48
2023/10/20 07:04:26;;;;;;;;;;;16.10;72.80;;;;;;4165200;28;19931;-50
2023/10/20 07:07:13;;;;;;;;;;;16.10;72.60;;;;;;4166394;28;20067;-47
2023/10/20 07:09:55;;;;;;;;;;;16.20;72.60;;;;;;4153071;28;20308;-51
2023/10/20 07:12:36;;;;;;;;;;;16.20;71.90;;;;;;4159526;28;19940;-51
2023/10/20 07:15:21;;;;;;;;;;;16.30;71.80;;;;;;4138003;28;20299;-48
2023/10/20 07:18:03;;;;;;;;;;;16.30;71.90;;;;;;4163119;28;20025;-48
2023/10/20 07:20:44;;;;;;;;;;;16.30;71.50;;;;;;4148866;28;19963;-50
2023/10/20 07:23:26;;;;;;;;;;;16.30;71.50;;;;;;4136538;28;20082;-49
2023/10/20 07:26:07;;;;;;;;;;;16.30;71.30;;;;;;4163711;28;20462;-47
2023/10/20 07:28:48;;;;;;;;;;;16.30;71.10;;;;;;4151369;28;19932;-48
2023/10/20 07:31:30;;;;;;;;;;;16.20;71.70;;;;;;4143634;28;19978;-51
2023/10/20 07:34:12;;;;;;;;;;;16.20;71.80;;;;;;4158190;28;19935;-47
2023/10/20 07:36:54;;;;;;;;;;;16.20;71.50;;;;;;4161794;28;19936;-47
2023/10/20 07:39:37;;;;;;;;;;;16.20;71.40;;;;;;4143998;28;20005;-48
2023/10/20 07:42:19;;;;;;;;;;;16.30;71.30;;;;;;4159048;28;19934;-47
2023/10/20 07:45:01;;;;;;;;;;;16.30;71.30;;;;;;4161040;28;20488;-44
2023/10/20 07:47:42;;;;;;;;;;;16.20;71.80;;;;;;4155110;28;19936;-51
2023/10/20 07:50:23;;;;;;;;;;;16.20;72.10;;;;;;4159292;28;20087;-51
2023/10/20 07:53:05;;;;;;;;;;;16.10;72.40;;;;;;4140783;28;20624;-50
2023/10/20 07:55:51;;;;;;;;;;;16.10;72.60;;;;;;4165659;28;20062;-50
2023/10/20 07:58:33;;;;;;;;;;;16.10;72.80;;;;;;4167308;28;20018;-45
2023/10/20 08:01:15;;;;;;;;;;;16.00;72.50;;;;;;4145233;28;19978;-46
2023/10/20 08:03:57;;;;;;;;;;;16.00;74.20;;;;;;4146050;28;19932;-49
2023/10/20 08:06:38;;;;;;;;;;;15.90;73.80;;;;;;4154661;28;20364;-46
2023/10/20 08:09:19;;;;;;;;;;;15.80;74.20;;;;;;4162665;28;20413;-46
2023/10/20 08:12:02;;;;;;;;;;;15.80;74.60;;;;;;4164439;28;19931;-46
2023/10/20 08:14:43;;;;;;;;;;;15.80;74.60;;;;;;4143551;28;19936;-51
2023/10/20 08:17:27;;;;;;;;;;;15.80;74.60;;;;;;4145125;28;19967;-51
2023/10/20 08:20:10;;;;;;;;;;;15.80;74.40;;;;;;4157917;28;19931;-50
2023/10/20 08:22:51;;;;;;;;;;;15.70;75.10;;;;;;4172670;28;19975;-50
2023/10/20 08:25:37;;;;;;;;;;;15.70;74.50;;;;;;4168506;28;19935;-50
2023/10/20 08:28:20;;;;;;;;;;;15.60;75.10;;;;;;4144104;28;19932;-51
2023/10/20 08:31:06;;;;;;;;;;;15.50;75.60;;;;;;4145295;28;20384;-49
2023/10/20 08:33:52;;;;;;;;;;;15.50;75.80;;;;;;4166136;28;19939;-46
2023/10/20 08:36:33;;;;;;;;;;;15.60;75.90;;;;;;4163163;28;19947;-45
2023/10/20 08:39:19;;;;;;;;;;;15.70;75.10;;;;;;4148847;28;19935;-50
2023/10/20 08:42:00;;;;;;;;;;;15.70;75.90;;;;;;4155614;28;19936;-52
2023/10/20 08:44:43;;;;;;;;;;;15.70;75.30;;;;;;4151234;28;19977;-49
2023/10/20 08:47:24;;;;;;;;;;;15.70;75.60;;;;;;4168640;28;19978;-50
2023/10/20 08:50:09;;;;;;;;;;;15.70;75.40;;;;;;4165965;28;20108;-53
2023/10/20 08:52:52;;;;;;;;;;;15.70;76.00;;;;;;4164455;28;19932;-45
2023/10/20 08:55:36;;;;;;;;;;;15.60;75.50;;;;;;4150219;28;19931;-50
2023/10/20 08:58:18;;;;;;;;;;;15.60;76.80;;;;;;4161343;28;20022;-50
2023/10/20 09:01:05;;;;;;;;;;;15.50;76.20;;;;;;4150039;28;20080;-46
2023/10/20 09:03:54;;;;;;;;;;;15.40;76.40;;;;;;4152643;28;19948;-45
2023/10/20 09:06:36;;;;;;;;;;;15.40;76.60;;;;;;4166540;28;20089;-46
2023/10/20 09:09:19;;;;;;;;;;;15.40;76.80;;;;;;4146373;28;20413;-46
2023/10/20 09:12:03;;;;;;;;;;;15.30;76.90;;;;;;4168876;28;20281;-44
2023/10/20 09:14:44;;;;;;;;;;;15.30;77.50;;;;;;4158047;28;20027;-46
2023/10/20 09:17:28;;;;;;;;;;;15.30;76.60;;;;;;4135301;28;19933;-44
2023/10/20 09:20:11;;;;;;;;;;;15.30;75.90;;;;;;4150458;28;20068;-44
2023/10/20 09:22:52;;;;;;;;;;;15.30;76.60;;;;;;4151945;28;19936;-44
2023/10/20 09:25:36;;;;;;;;;;;15.30;77.60;;;;;;4167810;28;19935;-44
2023/10/20 09:28:18;;;;;;;;;;;15.30;76.80;;;;;;4149251;28;19932;-50
2023/10/20 09:31:00;;;;;;;;;;;15.20;76.90;;;;;;4167366;28;19940;-50
2023/10/20 09:33:42;;;;;;;;;;;15.10;77.30;;;;;;4165779;28;19931;-50
2023/10/20 09:36:23;;;;;;;;;;;15.10;78.10;;;;;;4166184;28;19936;-51
2023/10/20 09:39:11;;;;;;;;;;;15.10;78.40;;;;;;4151372;28;19935;-49
2023/10/20 09:41:52;;;;;;;;;;;15.20;77.70;;;;;;4169879;28;19932;-51
2023/10/20 09:44:36;;;;;;;;;;;15.20;77.30;;;;;;4147310;28;19979;-50
2023/10/20 09:47:21;;;;;;;;;;;15.20;77.00;;;;;;4152662;28;20007;-52
2023/10/20 09:50:05;;;;;;;;;;;15.20;77.50;;;;;;4169056;28;19981;-49
2023/10/20 09:52:46;;;;;;;;;;;15.20;77.10;;;;;;4125377;28;19932;-45
2023/10/20 09:55:27;;;;;;;;;;;15.30;76.40;;;;;;4136719;28;20060;-46
2023/10/20 09:58:08;;;;;;;;;;;15.40;76.70;;;;;;4113876;28;19978;-45
2023/10/20 10:00:50;;;;;;;;;;;15.40;76.30;;;;;;4141207;28;20444;-47
2023/10/20 10:03:40;;;;;;;;;;;15.50;75.70;;;;;;4137251;28;20024;-47
2023/10/20 10:06:23;;;;;;;;;;;15.50;75.40;;;;;;4127699;28;19937;-44
2023/10/20 10:09:05;;;;;;;;;;;15.60;76.00;;;;;;4145149;28;19975;-44
2023/10/20 10:11:46;;;;;;;;;;;15.60;75.20;;;;;;4146950;28;19952;-46
2023/10/20 10:14:28;;;;;;;;;;;15.70;75.30;;;;;;4128749;28;19960;-46
2023/10/20 10:17:10;;;;;;;;;;;15.70;75.30;;;;;;4121699;28;20108;-46
2023/10/20 10:19:51;;;;;;;;;;;15.70;74.50;;;;;;4121653;28;19959;-45
2023/10/20 10:22:34;;;;;;;;;;;15.80;74.50;;;;;;4120573;28;20068;-46
2023/10/20 10:25:16;;;;;;;;;;;15.80;74.30;;;;;;4119361;28;20099;-46
2023/10/20 10:28:07;;;;;;;;;;;15.80;74.80;;;;;;4128518;28;20067;-46
2023/10/20 10:30:50;;;;;;;;;;;15.80;73.70;;;;;;4134005;28;20396;-46
2023/10/20 10:33:32;;;;;;;;;;;15.60;74.10;;;;;;4146932;28;20305;-49
2023/10/20 10:36:13;;;;;;;;;;;15.60;75.00;;;;;;4117287;28;20312;-49
2023/10/20 10:38:55;;;;;;;;;;;15.50;75.40;;;;;;4145379;28;20297;-50
2023/10/20 10:41:36;;;;;;;;;;;15.50;75.30;;;;;;4138654;28;19936;-45
2023/10/20 10:44:21;;;;;;;;;;;15.50;74.60;;;;;;4141159;28;19935;-48
2023/10/20 10:47:04;;;;;;;;;;;15.50;74.90;;;;;;4129168;28;20333;-50
2023/10/20 10:49:46;;;;;;;;;;;15.50;74.90;;;;;;4147037;28;20006;-46
2023/10/20 10:52:27;;;;;;;;;;;15.50;74.60;;;;;;4139572;28;20393;-49
2023/10/20 10:55:10;;;;;;;;;;;15.40;75.70;;;;;;4148714;28;19983;-49
2023/10/20 10:57:51;;;;;;;;;;;15.40;76.00;;;;;;4144110;28;19989;-46
2023/10/20 11:00:33;;;;;;;;;;;15.40;76.40;;;;;;4148659;28;19936;-46
2023/10/20 11:03:14;;;;;;;;;;;15.30;75.90;;;;;;4156008;28;19932;-49
2023/10/20 11:05:56;;;;;;;;;;;15.20;76.10;;;;;;4121855;28;20054;-45
2023/10/20 11:08:37;;;;;;;;;;;15.20;76.60;;;;;;4146573;28;19936;-45
2023/10/20 11:11:25;;;;;;;;;;;15.10;76.70;;;;;;4153711;28;19949;-49
2023/10/20 11:14:07;;;;;;;;;;;15.10;76.70;;;;;;4130467;28;19932;-45
2023/10/20 11:16:52;;;;;;;;;;;15.20;77.10;;;;;;4149842;28;20397;-52
2023/10/20 11:19:38;;;;;;;;;;;15.20;76.70;;;;;;4149958;28;20293;-49
2023/10/20 11:22:20;;;;;;;;;;;15.30;77.50;;;;;;4133189;28;20075;-50
2023/10/20 11:25:01;;;;;;;;;;;15.30;77.60;;;;;;4139589;28;20080;-47
2023/10/20 11:27:46;;;;;;;;;;;15.30;77.50;;;;;;4140587;28;20095;-47
2023/10/20 11:30:37;;;;;;;;;;;15.20;77.80;;;;;;4124801;28;20296;-45
2023/10/20 11:33:19;;;;;;;;;;;15.20;78.20;;;;;;4110572;28;20432;-47
2023/10/20 11:36:00;;;;;;;;;;;15.20;78.90;;;;;;4124355;28;20531;-55
2023/10/20 11:38:42;;;;;;;;;;;15.20;78.80;;;;;;4106153;28;19936;-53
2023/10/20 11:41:23;;;;;;;;;;;15.30;78.50;;;;;;4104189;28;19937;-54
2023/10/20 11:44:07;;;;;;;;;;;15.30;78.90;;;;;;4117855;28;20059;-54
2023/10/20 11:46:49;;;;;;;;;;;15.30;79.80;;;;;;4108093;28;19948;-54
2023/10/20 11:49:33;;;;;;;;;;;15.30;80.20;;;;;;4116561;28;20084;-45
2023/10/20 11:52:19;;;;;;;;;;;15.30;80.00;;;;;;4147894;28;19932;-55
2023/10/20 11:55:00;;;;;;;;;;;15.30;79.90;;;;;;4149476;28;19971;-52
2023/10/20 11:57:42;;;;;;;;;;;15.30;80.50;;;;;;4126586;28;19974;-50
2023/10/20 12:00:27;;;;;;;;;;;15.30;80.40;;;;;;4131782;28;19936;-46
2023/10/20 12:03:09;;;;;;;;;;;15.30;80.60;;;;;;4119600;28;20407;-48
2023/10/20 12:05:50;;;;;;;;;;;15.30;80.40;;;;;;4135074;28;19932;-47
2023/10/20 12:08:32;;;;;;;;;;;15.30;80.20;;;;;;4130304;28;20325;-47
2023/10/20 12:11:14;;;;;;;;;;;15.40;80.30;;;;;;4142562;28;19952;-55
2023/10/20 12:13:55;;;;;;;;;;;15.30;79.90;;;;;;4124045;28;20594;-48
2023/10/20 12:16:38;;;;;;;;;;;15.30;81.00;;;;;;4133976;28;20063;-56
2023/10/20 12:19:19;;;;;;;;;;;15.30;81.60;;;;;;4144257;28;19936;-55
2023/10/20 12:22:01;;;;;;;;;;;15.30;81.00;;;;;;4132641;28;19932;-48
2023/10/20 12:24:42;;;;;;;;;;;15.40;80.50;;;;;;4148812;28;19937;-56
2023/10/20 12:27:24;;;;;;;;;;;15.40;80.50;;;;;;4138719;28;19936;-48
2023/10/20 12:30:09;;;;;;;;;;;15.30;80.40;;;;;;4152206;28;19936;-53
2023/10/20 12:32:51;;;;;;;;;;;15.30;81.20;;;;;;4149420;28;19968;-55
2023/10/20 12:35:33;;;;;;;;;;;15.30;80.80;;;;;;4123489;28;20406;-55
2023/10/20 12:38:16;;;;;;;;;;;15.30;81.20;;;;;;4132760;28;19984;-55
2023/10/20 12:40:58;;;;;;;;;;;15.30;80.50;;;;;;4130732;28;19937;-46
2023/10/20 12:43:41;;;;;;;;;;;15.20;81.60;;;;;;4114956;28;19987;-55
2023/10/20 12:46:22;;;;;;;;;;;15.20;82.70;;;;;;4136696;28;19975;-53
2023/10/20 12:49:06;;;;;;;;;;;15.10;81.80;;;;;;4113250;28;19936;-46
2023/10/20 12:51:51;;;;;;;;;;;15.10;79.90;;;;;;4143029;28;20328;-57
2023/10/20 12:54:34;;;;;;;;;;;15.10;82.10;;;;;;4128770;28;20301;-46
2023/10/20 12:57:16;;;;;;;;;;;15.10;82.20;;;;;;4134719;28;20060;-47
2023/10/20 12:59:57;;;;;;;;;;;15.10;81.90;;;;;;4141651;28;19932;-44
2023/10/20 13:02:43;;;;;;;;;;;15.10;81.50;;;;;;4133575;28;20483;-45
2023/10/20 13:05:26;;;;;;;;;;;15.20;81.40;;;;;;4131647;28;20401;-54
2023/10/20 13:08:08;;;;;;;;;;;15.30;80.30;;;;;;4118005;28;19944;-45
2023/10/20 13:10:50;;;;;;;;;;;15.30;80.50;;;;;;4125844;28;20504;-51
2023/10/20 13:13:32;;;;;;;;;;;15.30;80.40;;;;;;4123839;28;19948;-54
2023/10/20 13:16:20;;;;;;;;;;;15.30;79.80;;;;;;4118413;28;20431;-54
2023/10/20 13:19:08;;;;;;;;;;;15.30;80.70;;;;;;4132424;28;19933;-54
2023/10/20 13:21:54;;;;;;;;;;;15.30;80.40;;;;;;4129494;28;20388;-55
2023/10/20 13:24:39;;;;;;;;;;;15.30;79.60;;;;;;4129283;28;19936;-55
2023/10/20 13:27:25;;;;;;;;;;;15.20;80.20;;;;;;4086623;28;19945;-54
2023/10/20 13:30:10;;;;;;;;;;;15.20;79.70;;;;;;4115472;28;19952;-54
2023/10/20 13:32:50;;;;;;;;;;;15.20;79.90;;;;;;4111105;28;19933;-54
2023/10/20 13:35:35;;;;;;;;;;;15.20;79.60;;;;;;4139968;28;19980;-54
2023/10/20 13:38:18;;;;;;;;;;;15.10;77.60;;;;;;4152701;28;20068;-54
2023/10/20 13:41:12;;;;;;;;;;;15.10;78.50;;;;;;4122283;28;20332;-53
2023/10/20 13:43:54;;;;;;;;;;;15.10;79.60;;;;;;4096854;28;20424;-45
2023/10/20 13:46:35;;;;;;;;;;;15.00;79.10;;;;;;4132784;28;19932;-45
2023/10/20 13:49:21;;;;;;;;;;;15.00;79.50;;;;;;4133048;28;19936;-52
2023/10/20 13:52:03;;;;;;;;;;;15.00;79.60;;;;;;4147801;28;19932;-45
2023/10/20 13:54:46;;;;;;;;;;;15.00;80.90;;;;;;4143818;28;19931;-45
2023/10/20 13:57:28;;;;;;;;;;;15.00;80.20;;;;;;4147694;28;20415;-45
2023/10/20 14:00:19;;;;;;;;;;;15.00;81.10;;;;;;4098644;28;19949;-45
2023/10/20 14:03:00;;;;;;;;;;;15.00;81.80;;;;;;4135969;28;19968;-53
2023/10/20 14:05:41;;;;;;;;;;;15.00;81.20;;;;;;4107154;28;19956;-52
2023/10/20 14:08:22;;;;;;;;;;;15.00;81.40;;;;;;4119585;28;19932;-45
2023/10/20 14:11:05;;;;;;;;;;;15.00;81.30;;;;;;4112102;28;20020;-53
2023/10/20 14:13:49;;;;;;;;;;;15.00;81.50;;;;;;4124793;28;20442;-45
2023/10/20 14:16:30;;;;;;;;;;;15.00;80.90;;;;;;4134190;28;20273;-46
2023/10/20 14:19:14;;;;;;;;;;;15.10;80.90;;;;;;4138969;28;19936;-53
2023/10/20 14:21:56;;;;;;;;;;;15.10;81.60;;;;;;4149083;28;19935;-52
2023/10/20 14:24:40;;;;;;;;;;;15.10;78.50;;;;;;4102259;28;19956;-45
2023/10/20 14:27:23;;;;;;;;;;;15.00;81.10;;;;;;4122512;28;19971;-54
2023/10/20 14:30:05;;;;;;;;;;;15.00;80.90;;;;;;4113833;28;19932;-45
2023/10/20 14:32:46;;;;;;;;;;;15.10;81.70;;;;;;4144239;28;19951;-45
2023/10/20 14:35:36;;;;;;;;;;;15.10;81.40;;;;;;4116557;28;19952;-44
2023/10/20 14:38:17;;;;;;;;;;;15.00;81.30;;;;;;4138815;28;19975;-50
2023/10/20 14:41:02;;;;;;;;;;;15.00;80.90;;;;;;4148356;28;19932;-45
2023/10/20 14:43:45;;;;;;;;;;;15.00;81.20;;;;;;4138886;28;19997;-45
2023/10/20 14:46:27;;;;;;;;;;;15.10;81.40;;;;;;4116352;28;19936;-45
2023/10/20 14:49:08;;;;;;;;;;;15.00;82.20;;;;;;4134154;28;19937;-44
2023/10/20 14:51:49;;;;;;;;;;;15.00;82.70;;;;;;4136395;28;19979;-51
2023/10/20 14:54:31;;;;;;;;;;;15.00;83.60;;;;;;4139142;28;19970;-51
2023/10/20 14:57:13;;;;;;;;;;;14.90;84.10;;;;;;4140942;28;19936;-45
2023/10/20 14:59:56;;;;;;;;;;;14.90;84.00;;;;;;4121567;28;19948;-45
2023/10/20 15:02:43;;;;;;;;;;;14.90;84.30;;;;;;4117523;28;19936;-54
2023/10/20 15:05:27;;;;;;;;;;;14.90;84.30;;;;;;4132533;28;19931;-45
2023/10/20 15:08:11;;;;;;;;;;;14.90;83.90;;;;;;4130727;28;20083;-51
2023/10/20 15:10:52;;;;;;;;;;;14.90;84.10;;;;;;4107036;28;21596;-48
2023/10/20 15:13:33;;;;;;;;;;;14.90;83.80;;;;;;4119346;28;19979;-46
2023/10/20 15:16:16;;;;;;;;;;;14.90;83.00;;;;;;4083651;28;19990;-54
2023/10/20 15:18:57;;;;;;;;;;;14.80;83.80;;;;;;4147530;28;19936;-47
2023/10/20 15:21:38;;;;;;;;;;;14.80;83.60;;;;;;4138636;28;19936;-46
2023/10/20 15:24:19;;;;;;;;;;;14.80;85.40;;;;;;4134476;28;19932;-45
2023/10/20 15:27:00;;;;;;;;;;;14.80;85.20;;;;;;4115823;28;20325;-55
2023/10/20 15:29:48;;;;;;;;;;;14.90;83.20;;;;;;4131903;28;20410;-47
2023/10/20 15:32:31;;;;;;;;;;;15.00;83.70;;;;;;4124415;28;19975;-49
2023/10/20 15:35:16;;;;;;;;;;;15.00;84.10;;;;;;4138173;28;19936;-46
2023/10/20 15:38:01;;;;;;;;;;;15.10;84.40;;;;;;4126857;28;20479;-46
2023/10/20 15:40:56;;;;;;;;;;;15.10;84.30;;;;;;4092160;28;19935;-48
2023/10/20 15:43:48;;;;;;;;;;;15.20;84.30;;;;;;4111592;28;19937;-47
2023/10/20 15:46:29;;;;;;;;;;;15.20;84.40;;;;;;4129404;28;19932;-46
2023/10/20 15:49:12;;;;;;;;;;;15.30;84.80;;;;;;4132444;28;20031;-49
2023/10/20 15:51:53;;;;;;;;;;;15.40;84.00;;;;;;4134308;28;20483;-56
2023/10/20 15:54:34;;;;;;;;;;;15.40;83.70;;;;;;4135418;28;20398;-55
2023/10/20 15:57:17;;;;;;;;;;;15.40;83.80;;;;;;4146051;28;19932;-55
2023/10/20 16:00:00;;;;;;;;;;;15.40;84.30;;;;;;4129920;28;19995;-45
2023/10/20 16:02:52;;;;;;;;;;;15.40;84.20;;;;;;4135746;28;19955;-45
2023/10/20 16:05:35;;;;;;;;;;;15.60;84.20;;;;;;4149212;28;19932;-55
2023/10/20 16:08:16;;;;;;;;;;;15.90;83.00;;;;;;4151841;28;19971;-52